EJU4304 LFBH-LFLL
Flight info
| Callsign | EJU4304 |
|---|---|
| Flight time | 0h 50m |
| Altitude | 34000 |
| Route | PIQFU DCT LABAL DCT LESPI |
| Aircraft | A319/M-SDE3FGHIRWY/LB1 |
Departure
| Time | 2026-05-05 00:36 |
|---|---|
| Airport | La Rochelle Île de Ré Airport (LFBH) |
Arrival
| Time | 2026-05-05 01:26 |
|---|---|
| Airport | Lyon Saint-Exupéry Airport (LFLL) |
| Time | Latitude | Longitude | Altitude | Speed | Heading |
|---|---|---|---|---|---|
| 2026-05-05 00:20 | 46.17662 | -1.19462 | 82 ft | 0 kts | 318° |
| 2026-05-05 00:32 | 46.17672 | -1.19475 | 85 ft | 6 kts | 317° |
| 2026-05-05 00:32 | 46.17716 | -1.19522 | 85 ft | 9 kts | 338° |
| 2026-05-05 00:32 | 46.17782 | -1.19526 | 81 ft | 11 kts | 3° |
| 2026-05-05 00:33 | 46.17862 | -1.19523 | 80 ft | 12 kts | 1° |
| 2026-05-05 00:33 | 46.17917 | -1.19443 | 81 ft | 13 kts | 88° |
| 2026-05-05 00:33 | 46.17909 | -1.19278 | 76 ft | 21 kts | 92° |
| 2026-05-05 00:33 | 46.17906 | -1.19064 | 78 ft | 20 kts | 92° |
| 2026-05-05 00:34 | 46.17897 | -1.18862 | 79 ft | 20 kts | 91° |
| 2026-05-05 00:34 | 46.17894 | -1.18653 | 83 ft | 20 kts | 93° |
| 2026-05-05 00:34 | 46.17888 | -1.18464 | 85 ft | 18 kts | 92° |
| 2026-05-05 00:34 | 46.17878 | -1.18292 | 84 ft | 15 kts | 104° |
| 2026-05-05 00:35 | 46.17866 | -1.18214 | 84 ft | 5 kts | 11° |
| 2026-05-05 00:35 | 46.17885 | -1.18315 | 87 ft | 32 kts | 272° |
| 2026-05-05 00:35 | 46.17908 | -1.19038 | 80 ft | 109 kts | 272° |
| 2026-05-05 00:35 | 46.17949 | -1.20395 | 261 ft | 146 kts | 275° |
| 2026-05-05 00:36 | 46.17979 | -1.21811 | 1036 ft | 140 kts | 274° |
| 2026-05-05 00:36 | 46.18018 | -1.23281 | 1544 ft | 157 kts | 275° |
| 2026-05-05 00:36 | 46.17813 | -1.24912 | 2035 ft | 179 kts | 242° |
| 2026-05-05 00:36 | 46.16800 | -1.26116 | 2523 ft | 208 kts | 203° |
| 2026-05-05 00:37 | 46.15292 | -1.26179 | 3007 ft | 235 kts | 162° |
| 2026-05-05 00:37 | 46.13934 | -1.24779 | 3767 ft | 249 kts | 131° |
| 2026-05-05 00:37 | 46.13006 | -1.22637 | 4603 ft | 259 kts | 107° |
| 2026-05-05 00:37 | 46.12719 | -1.20036 | 5495 ft | 267 kts | 91° |
| 2026-05-05 00:38 | 46.12770 | -1.17326 | 6428 ft | 274 kts | 85° |
| 2026-05-05 00:38 | 46.12840 | -1.14596 | 7459 ft | 274 kts | 89° |
| 2026-05-05 00:38 | 46.12823 | -1.11841 | 8437 ft | 276 kts | 91° |
| 2026-05-05 00:38 | 46.12771 | -1.09033 | 9280 ft | 285 kts | 91° |
| 2026-05-05 00:39 | 46.12732 | -1.06155 | 10212 ft | 288 kts | 91° |
| 2026-05-05 00:39 | 46.12706 | -1.03161 | 10634 ft | 310 kts | 91° |
| 2026-05-05 00:39 | 46.12686 | -0.99935 | 10985 ft | 332 kts | 91° |
| 2026-05-05 00:39 | 46.12672 | -0.96569 | 11707 ft | 339 kts | 90° |
| 2026-05-05 00:40 | 46.12662 | -0.93159 | 12542 ft | 342 kts | 91° |
| 2026-05-05 00:40 | 46.12652 | -0.89718 | 13399 ft | 345 kts | 91° |
| 2026-05-05 00:40 | 46.12638 | -0.86249 | 14189 ft | 348 kts | 91° |
| 2026-05-05 00:40 | 46.12623 | -0.82747 | 14908 ft | 351 kts | 91° |
| 2026-05-05 00:41 | 46.12605 | -0.79205 | 15630 ft | 356 kts | 92° |
| 2026-05-05 00:41 | 46.12588 | -0.75618 | 16331 ft | 360 kts | 92° |
| 2026-05-05 00:41 | 46.12569 | -0.71990 | 17007 ft | 364 kts | 92° |
| 2026-05-05 00:41 | 46.12547 | -0.68319 | 17693 ft | 368 kts | 92° |
| 2026-05-05 00:42 | 46.12521 | -0.64592 | 18357 ft | 372 kts | 92° |
| 2026-05-05 00:42 | 46.12494 | -0.60886 | 18937 ft | 376 kts | 92° |
| 2026-05-05 00:42 | 46.12460 | -0.57092 | 19555 ft | 379 kts | 93° |
| 2026-05-05 00:42 | 46.12426 | -0.53274 | 20181 ft | 382 kts | 93° |
| 2026-05-05 00:43 | 46.12394 | -0.49425 | 20793 ft | 386 kts | 93° |
| 2026-05-05 00:43 | 46.12365 | -0.45543 | 21411 ft | 389 kts | 93° |
| 2026-05-05 00:43 | 46.12335 | -0.41628 | 22043 ft | 392 kts | 93° |
| 2026-05-05 00:43 | 46.12302 | -0.37672 | 22657 ft | 396 kts | 94° |
| 2026-05-05 00:44 | 46.12266 | -0.33700 | 23257 ft | 399 kts | 94° |
| 2026-05-05 00:44 | 46.12226 | -0.29687 | 23812 ft | 402 kts | 94° |
| 2026-05-05 00:44 | 46.12183 | -0.25636 | 24310 ft | 405 kts | 94° |
| 2026-05-05 00:44 | 46.12138 | -0.21571 | 24803 ft | 407 kts | 94° |
| 2026-05-05 00:45 | 46.12093 | -0.17485 | 25285 ft | 409 kts | 94° |
| 2026-05-05 00:45 | 46.12048 | -0.13378 | 25758 ft | 411 kts | 94° |
| 2026-05-05 00:45 | 46.11999 | -0.09250 | 26232 ft | 413 kts | 95° |
| 2026-05-05 00:45 | 46.11948 | -0.05100 | 26703 ft | 415 kts | 95° |
| 2026-05-05 00:46 | 46.11895 | -0.00928 | 27168 ft | 417 kts | 95° |
| 2026-05-05 00:46 | 46.11844 | 0.03209 | 27639 ft | 418 kts | 96° |
| 2026-05-05 00:46 | 46.11791 | 0.07407 | 28134 ft | 420 kts | 96° |
| 2026-05-05 00:46 | 46.11735 | 0.11623 | 28595 ft | 422 kts | 96° |
| 2026-05-05 00:47 | 46.11677 | 0.15861 | 29045 ft | 424 kts | 96° |
| 2026-05-05 00:47 | 46.11618 | 0.20120 | 29475 ft | 426 kts | 96° |
| 2026-05-05 00:47 | 46.11557 | 0.24400 | 29902 ft | 428 kts | 96° |
| 2026-05-05 00:47 | 46.11492 | 0.28702 | 30259 ft | 431 kts | 96° |
| 2026-05-05 00:48 | 46.11423 | 0.33029 | 30567 ft | 433 kts | 96° |
| 2026-05-05 00:48 | 46.11350 | 0.37385 | 30869 ft | 436 kts | 96° |
| 2026-05-05 00:48 | 46.11278 | 0.41768 | 31140 ft | 439 kts | 96° |
| 2026-05-05 00:48 | 46.11206 | 0.46166 | 31491 ft | 440 kts | 96° |
| 2026-05-05 00:49 | 46.11134 | 0.50579 | 31830 ft | 441 kts | 96° |
| 2026-05-05 00:49 | 46.11085 | 0.53507 | 32098 ft | 441 kts | 96° |
| 2026-05-05 00:49 | 46.10984 | 0.59418 | 32610 ft | 441 kts | 96° |
| 2026-05-05 00:49 | 46.10905 | 0.63840 | 32975 ft | 442 kts | 96° |
| 2026-05-05 00:50 | 46.10853 | 0.66767 | 33216 ft | 442 kts | 96° |
| 2026-05-05 00:50 | 46.10771 | 0.71200 | 33584 ft | 443 kts | 96° |
| 2026-05-05 00:50 | 46.10688 | 0.75654 | 33877 ft | 445 kts | 96° |
| 2026-05-05 00:51 | 46.10522 | 0.84418 | 33922 ft | 431 kts | 97° |
| 2026-05-05 00:51 | 46.10351 | 0.92975 | 33921 ft | 427 kts | 97° |
| 2026-05-05 00:52 | 46.10164 | 1.01495 | 33921 ft | 427 kts | 97° |
| 2026-05-05 00:52 | 46.09974 | 1.10046 | 33915 ft | 427 kts | 97° |
| 2026-05-05 00:53 | 46.09784 | 1.18646 | 33912 ft | 427 kts | 97° |
| 2026-05-05 00:53 | 46.09582 | 1.27132 | 33889 ft | 426 kts | 97° |
| 2026-05-05 00:54 | 46.09374 | 1.35657 | 33897 ft | 426 kts | 97° |
| 2026-05-05 00:54 | 46.09166 | 1.44185 | 33890 ft | 426 kts | 97° |
| 2026-05-05 00:55 | 46.08947 | 1.52718 | 33890 ft | 426 kts | 97° |
| 2026-05-05 00:55 | 46.08723 | 1.61239 | 33867 ft | 426 kts | 98° |
| 2026-05-05 00:56 | 46.08493 | 1.69759 | 33875 ft | 426 kts | 98° |
| 2026-05-05 00:56 | 46.08260 | 1.78277 | 33882 ft | 426 kts | 98° |
| 2026-05-05 00:57 | 46.08017 | 1.86815 | 33893 ft | 426 kts | 98° |
| 2026-05-05 00:57 | 46.07765 | 1.95339 | 33896 ft | 426 kts | 98° |
| 2026-05-05 00:58 | 46.07514 | 2.03810 | 33878 ft | 426 kts | 98° |
| 2026-05-05 00:58 | 46.07255 | 2.12335 | 33884 ft | 427 kts | 99° |
| 2026-05-05 00:59 | 46.06981 | 2.20880 | 33886 ft | 427 kts | 99° |
| 2026-05-05 00:59 | 46.06707 | 2.29432 | 33892 ft | 428 kts | 99° |
| 2026-05-05 01:00 | 46.06425 | 2.37995 | 33873 ft | 428 kts | 99° |
| 2026-05-05 01:00 | 46.06130 | 2.46550 | 33884 ft | 428 kts | 99° |
| 2026-05-05 01:01 | 46.05836 | 2.55119 | 33895 ft | 429 kts | 99° |
| 2026-05-05 01:01 | 46.05686 | 2.59417 | 33706 ft | 430 kts | 99° |
| 2026-05-05 01:01 | 46.05536 | 2.63669 | 33432 ft | 429 kts | 99° |
| 2026-05-05 01:01 | 46.05383 | 2.67969 | 33157 ft | 429 kts | 99° |
| 2026-05-05 01:02 | 46.05228 | 2.72251 | 32885 ft | 428 kts | 99° |
| 2026-05-05 01:02 | 46.05072 | 2.76523 | 32621 ft | 427 kts | 99° |
| 2026-05-05 01:02 | 46.04917 | 2.80774 | 32323 ft | 424 kts | 99° |
| 2026-05-05 01:02 | 46.04763 | 2.84991 | 32060 ft | 420 kts | 99° |
| 2026-05-05 01:03 | 46.04606 | 2.89178 | 31796 ft | 418 kts | 99° |
| 2026-05-05 01:03 | 46.04449 | 2.93336 | 31537 ft | 415 kts | 99° |
| 2026-05-05 01:03 | 46.04292 | 2.97467 | 31282 ft | 412 kts | 99° |
| 2026-05-05 01:03 | 46.04134 | 3.01570 | 31021 ft | 409 kts | 99° |
| 2026-05-05 01:04 | 46.03974 | 3.05646 | 30772 ft | 406 kts | 99° |
| 2026-05-05 01:04 | 46.03655 | 3.13677 | 29829 ft | 398 kts | 99° |
| 2026-05-05 01:04 | 46.03495 | 3.17632 | 29287 ft | 393 kts | 98° |
| 2026-05-05 01:05 | 46.03337 | 3.21534 | 28834 ft | 388 kts | 98° |
| 2026-05-05 01:05 | 46.03178 | 3.25390 | 28360 ft | 384 kts | 98° |
| 2026-05-05 01:05 | 46.03019 | 3.29206 | 27899 ft | 380 kts | 98° |
| 2026-05-05 01:05 | 46.02867 | 3.32986 | 27460 ft | 377 kts | 96° |
| 2026-05-05 01:06 | 46.02982 | 3.36719 | 27020 ft | 380 kts | 87° |
| 2026-05-05 01:06 | 46.03472 | 3.40457 | 26574 ft | 380 kts | 82° |
| 2026-05-05 01:06 | 46.04017 | 3.44145 | 26153 ft | 377 kts | 82° |
| 2026-05-05 01:06 | 46.04557 | 3.47823 | 25730 ft | 374 kts | 83° |
| 2026-05-05 01:07 | 46.05085 | 3.51474 | 25313 ft | 371 kts | 83° |
| 2026-05-05 01:07 | 46.05604 | 3.55105 | 24890 ft | 368 kts | 83° |
| 2026-05-05 01:07 | 46.06115 | 3.58701 | 24468 ft | 365 kts | 83° |
| 2026-05-05 01:07 | 46.06624 | 3.62280 | 24050 ft | 363 kts | 82° |
| 2026-05-05 01:08 | 46.07127 | 3.65824 | 23626 ft | 361 kts | 82° |
| 2026-05-05 01:08 | 46.07627 | 3.69368 | 23144 ft | 359 kts | 82° |
| 2026-05-05 01:08 | 46.08122 | 3.72882 | 22710 ft | 357 kts | 82° |
| 2026-05-05 01:08 | 46.08615 | 3.76369 | 22275 ft | 354 kts | 82° |
| 2026-05-05 01:09 | 46.09100 | 3.79789 | 21861 ft | 352 kts | 82° |
| 2026-05-05 01:09 | 46.09589 | 3.83237 | 21428 ft | 349 kts | 82° |
| 2026-05-05 01:09 | 46.10075 | 3.86662 | 21001 ft | 347 kts | 82° |
| 2026-05-05 01:09 | 46.10555 | 3.90065 | 20567 ft | 345 kts | 82° |
| 2026-05-05 01:10 | 46.10932 | 3.93459 | 20144 ft | 341 kts | 89° |
| 2026-05-05 01:10 | 46.10897 | 3.96841 | 19730 ft | 335 kts | 100° |
| 2026-05-05 01:10 | 46.10458 | 4.00105 | 19334 ft | 329 kts | 110° |
| 2026-05-05 01:10 | 46.09802 | 4.03257 | 18938 ft | 328 kts | 111° |
| 2026-05-05 01:11 | 46.09150 | 4.06403 | 18546 ft | 326 kts | 111° |
| 2026-05-05 01:11 | 46.08512 | 4.09494 | 18150 ft | 326 kts | 111° |
| 2026-05-05 01:11 | 46.07868 | 4.12623 | 17723 ft | 326 kts | 110° |
| 2026-05-05 01:11 | 46.07229 | 4.15730 | 17394 ft | 323 kts | 110° |
| 2026-05-05 01:12 | 46.06589 | 4.18831 | 17018 ft | 321 kts | 110° |
| 2026-05-05 01:12 | 46.05954 | 4.21896 | 16639 ft | 318 kts | 110° |
| 2026-05-05 01:12 | 46.05319 | 4.24939 | 16264 ft | 316 kts | 110° |
| 2026-05-05 01:12 | 46.04687 | 4.27963 | 15894 ft | 315 kts | 110° |
| 2026-05-05 01:13 | 46.04058 | 4.30977 | 15529 ft | 314 kts | 110° |
| 2026-05-05 01:13 | 46.03428 | 4.33993 | 15168 ft | 314 kts | 110° |
| 2026-05-05 01:13 | 46.02796 | 4.37007 | 14772 ft | 313 kts | 111° |
| 2026-05-05 01:13 | 46.02168 | 4.39992 | 14416 ft | 311 kts | 111° |
| 2026-05-05 01:14 | 46.01542 | 4.42966 | 14047 ft | 310 kts | 111° |
| 2026-05-05 01:14 | 46.00916 | 4.45937 | 13669 ft | 311 kts | 111° |
| 2026-05-05 01:14 | 46.00280 | 4.48906 | 13269 ft | 310 kts | 112° |
| 2026-05-05 01:14 | 45.99387 | 4.51700 | 12881 ft | 305 kts | 124° |
| 2026-05-05 01:15 | 45.98300 | 4.54200 | 12720 ft | 292 kts | 125° |
| 2026-05-05 01:15 | 45.97266 | 4.56647 | 12340 ft | 283 kts | 121° |
| 2026-05-05 01:15 | 45.96547 | 4.59276 | 11833 ft | 284 kts | 107° |
| 2026-05-05 01:15 | 45.96285 | 4.62095 | 11386 ft | 286 kts | 94° |
| 2026-05-05 01:16 | 45.96492 | 4.64956 | 10993 ft | 291 kts | 80° |
| 2026-05-05 01:16 | 45.97021 | 4.67781 | 10602 ft | 292 kts | 77° |
| 2026-05-05 01:16 | 45.97549 | 4.70597 | 10292 ft | 288 kts | 78° |
| 2026-05-05 01:16 | 45.98061 | 4.73357 | 10116 ft | 284 kts | 78° |
| 2026-05-05 01:17 | 45.98566 | 4.76104 | 9989 ft | 285 kts | 78° |
| 2026-05-05 01:17 | 45.99077 | 4.78902 | 9516 ft | 293 kts | 78° |
| 2026-05-05 01:17 | 45.99587 | 4.81666 | 9348 ft | 277 kts | 78° |
| 2026-05-05 01:17 | 46.00067 | 4.84252 | 9225 ft | 259 kts | 78° |
| 2026-05-05 01:18 | 46.00427 | 4.86722 | 8920 ft | 248 kts | 88° |
| 2026-05-05 01:18 | 46.00441 | 4.89164 | 8506 ft | 242 kts | 99° |
| 2026-05-05 01:18 | 46.00287 | 4.91562 | 8062 ft | 240 kts | 99° |
| 2026-05-05 01:18 | 46.00144 | 4.93945 | 7637 ft | 238 kts | 99° |
| 2026-05-05 01:19 | 46.00005 | 4.96310 | 7224 ft | 236 kts | 99° |
| 2026-05-05 01:19 | 45.99875 | 4.98597 | 7058 ft | 222 kts | 99° |
| 2026-05-05 01:19 | 45.99758 | 5.00730 | 6894 ft | 210 kts | 99° |
| 2026-05-05 01:19 | 45.99521 | 5.02768 | 6448 ft | 204 kts | 115° |
| 2026-05-05 01:20 | 45.98833 | 5.04490 | 5998 ft | 196 kts | 135° |
| 2026-05-05 01:20 | 45.97806 | 5.05700 | 5611 ft | 186 kts | 154° |
| 2026-05-05 01:20 | 45.96622 | 5.06326 | 5367 ft | 179 kts | 170° |
| 2026-05-05 01:20 | 45.95410 | 5.06508 | 5132 ft | 177 kts | 176° |
| 2026-05-05 01:21 | 45.94189 | 5.06658 | 4905 ft | 176 kts | 176° |
| 2026-05-05 01:21 | 45.92974 | 5.06807 | 4665 ft | 175 kts | 176° |
| 2026-05-05 01:21 | 45.91771 | 5.06954 | 4425 ft | 175 kts | 176° |
| 2026-05-05 01:21 | 45.90556 | 5.07103 | 4186 ft | 176 kts | 175° |
| 2026-05-05 01:22 | 45.89340 | 5.07252 | 3948 ft | 176 kts | 175° |
| 2026-05-05 01:22 | 45.88118 | 5.07402 | 3714 ft | 175 kts | 175° |
| 2026-05-05 01:22 | 45.86901 | 5.07551 | 3480 ft | 176 kts | 175° |
| 2026-05-05 01:22 | 45.85681 | 5.07700 | 3247 ft | 176 kts | 175° |
| 2026-05-05 01:23 | 45.84492 | 5.07845 | 3012 ft | 167 kts | 175° |
| 2026-05-05 01:23 | 45.83380 | 5.07981 | 2806 ft | 151 kts | 175° |
| 2026-05-05 01:23 | 45.82387 | 5.08103 | 2597 ft | 137 kts | 175° |
| 2026-05-05 01:23 | 45.81451 | 5.08217 | 2425 ft | 133 kts | 175° |
| 2026-05-05 01:24 | 45.80549 | 5.08327 | 2251 ft | 132 kts | 175° |
| 2026-05-05 01:24 | 45.79637 | 5.08438 | 2075 ft | 131 kts | 175° |
| 2026-05-05 01:24 | 45.78729 | 5.08549 | 1898 ft | 131 kts | 175° |
| 2026-05-05 01:24 | 45.77816 | 5.08660 | 1711 ft | 132 kts | 175° |
| 2026-05-05 01:25 | 45.76894 | 5.08773 | 1513 ft | 133 kts | 175° |
| 2026-05-05 01:25 | 45.75968 | 5.08885 | 1328 ft | 134 kts | 174° |
| 2026-05-05 01:25 | 45.75047 | 5.08998 | 1144 ft | 134 kts | 174° |
| 2026-05-05 01:25 | 45.74117 | 5.09111 | 965 ft | 134 kts | 174° |
| 2026-05-05 01:26 | 45.73184 | 5.09226 | 806 ft | 133 kts | 175° |
| 2026-05-05 01:26 | 45.72466 | 5.09317 | 812 ft | 63 kts | 176° |
| 2026-05-05 01:26 | 45.72163 | 5.09302 | 811 ft | 37 kts | 192° |
| 2026-05-05 01:26 | 45.72029 | 5.09232 | 816 ft | 16 kts | 211° |
| 2026-05-05 01:27 | 45.71983 | 5.09096 | 811 ft | 16 kts | 263° |
| 2026-05-05 01:27 | 45.71972 | 5.08938 | 811 ft | 16 kts | 263° |
| 2026-05-05 01:27 | 45.71961 | 5.08784 | 811 ft | 15 kts | 264° |
| 2026-05-05 01:27 | 45.71951 | 5.08629 | 806 ft | 16 kts | 265° |
| 2026-05-05 01:28 | 45.71944 | 5.08466 | 802 ft | 17 kts | 272° |
| 2026-05-05 01:28 | 45.71967 | 5.08309 | 799 ft | 13 kts | 287° |
| 2026-05-05 01:28 | 45.71947 | 5.08227 | 797 ft | 9 kts | 206° |
| 2026-05-05 01:28 | 45.71894 | 5.08203 | 797 ft | 7 kts | 196° |
| 2026-05-05 01:29 | 45.71854 | 5.08187 | 797 ft | 6 kts | 195° |
| 2026-05-05 01:29 | 45.71839 | 5.08138 | 797 ft | 8 kts | 290° |
| 2026-05-05 01:29 | 45.71864 | 5.08087 | 797 ft | 5 kts | 308° |
| 2026-05-05 01:29 | 45.71865 | 5.08085 | 797 ft | 0 kts | 309° |